createdAt,value
2022-09-28T00:01:58.570Z,12.00
2022-09-28T00:03:59.909Z,11.98
2022-09-28T00:06:02.826Z,11.85
2022-09-28T00:08:01.358Z,11.81
2022-09-28T00:10:00.089Z,11.77
2022-09-28T00:11:58.556Z,11.78
2022-09-28T00:14:00.185Z,11.72
2022-09-28T00:16:03.839Z,11.83
2022-09-28T00:18:03.667Z,11.82
2022-09-28T00:20:03.065Z,11.79
2022-09-28T00:22:01.150Z,11.80
2022-09-28T00:24:15.063Z,11.74
2022-09-28T00:26:13.547Z,11.62
2022-09-28T00:28:11.781Z,11.52
2022-09-28T00:30:11.141Z,11.50
2022-09-28T00:32:13.442Z,11.49
2022-09-28T00:34:13.767Z,11.45
2022-09-28T00:36:12.199Z,11.46
2022-09-28T00:38:11.199Z,11.44
2022-09-28T00:40:10.285Z,11.46
2022-09-28T00:42:15.658Z,11.50
2022-09-28T00:44:44.856Z,11.52
2022-09-28T00:46:43.300Z,11.49
2022-09-28T00:48:53.859Z,11.47
2022-09-28T00:50:54.128Z,11.42
2022-09-28T00:52:56.859Z,11.35
2022-09-28T00:54:57.491Z,11.33
2022-09-28T00:56:56.302Z,11.36
2022-09-28T00:58:55.443Z,11.42
2022-09-28T01:00:55.605Z,11.51
2022-09-28T01:02:54.206Z,11.54
2022-09-28T01:04:53.470Z,11.53
2022-09-28T01:06:54.016Z,11.53
2022-09-28T01:08:55.861Z,11.54
2022-09-28T01:10:54.652Z,11.52
2022-09-28T01:12:53.303Z,11.53
2022-09-28T01:14:53.574Z,11.53
2022-09-28T01:17:02.009Z,11.58
2022-09-28T01:19:27.395Z,11.55
2022-09-28T01:21:27.107Z,11.56
2022-09-28T01:24:02.795Z,11.63
2022-09-28T01:26:28.242Z,11.58
2022-09-28T01:28:30.158Z,11.53
2022-09-28T01:30:28.359Z,11.49
2022-09-28T01:32:37.956Z,11.41
2022-09-28T01:34:43.031Z,11.28
2022-09-28T01:36:47.329Z,11.26
2022-09-28T01:38:50.180Z,11.23
2022-09-28T01:40:49.616Z,11.30
2022-09-28T01:42:56.075Z,11.31
2022-09-28T01:45:01.257Z,11.17
2022-09-28T01:47:04.338Z,11.23
2022-09-28T01:49:09.608Z,11.22
2022-09-28T01:51:13.693Z,11.25
2022-09-28T01:53:18.607Z,11.21
2022-09-28T01:55:26.044Z,11.14
2022-09-28T01:57:29.464Z,11.12
2022-09-28T01:59:32.323Z,11.14
2022-09-28T02:01:39.068Z,11.18
2022-09-28T02:03:43.537Z,11.23
2022-09-28T02:05:44.934Z,11.26
2022-09-28T02:07:49.922Z,11.28
2022-09-28T02:09:53.827Z,11.27
2022-09-28T02:11:59.566Z,11.29
2022-09-28T02:14:02.693Z,11.24
2022-09-28T02:16:11.019Z,11.06
2022-09-28T02:18:10.447Z,10.97
2022-09-28T02:20:10.262Z,10.98
2022-09-28T02:22:23.245Z,10.87
2022-09-28T02:24:25.578Z,10.85
2022-09-28T02:26:43.358Z,10.84
2022-09-28T02:28:41.906Z,10.88
2022-09-28T02:30:43.235Z,10.93
2022-09-28T02:32:48.080Z,10.97
2022-09-28T02:34:46.823Z,10.94
2022-09-28T02:36:45.746Z,10.95
2022-09-28T02:38:44.525Z,10.90
2022-09-28T02:40:50.702Z,10.80
2022-09-28T02:42:59.620Z,10.76
2022-09-28T02:45:10.381Z,10.74
2022-09-28T02:47:22.024Z,10.79
2022-09-28T02:49:32.372Z,10.75
2022-09-28T02:51:39.488Z,10.72
2022-09-28T02:53:55.199Z,10.71
2022-09-28T02:56:10.851Z,10.69
2022-09-28T02:58:31.810Z,10.65
2022-09-28T03:00:33.861Z,10.70
2022-09-28T03:02:37.805Z,10.69
2022-09-28T03:04:43.102Z,10.78
2022-09-28T03:06:54.603Z,10.79
2022-09-28T03:08:58.693Z,10.82
2022-09-28T03:11:03.920Z,10.97
2022-09-28T03:13:04.952Z,11.05
2022-09-28T03:15:09.061Z,11.06
2022-09-28T03:17:07.509Z,11.11
2022-09-28T03:19:05.992Z,11.15
2022-09-28T03:21:06.666Z,11.13
2022-09-28T03:23:24.669Z,11.13
2022-09-28T03:25:23.158Z,11.14
2022-09-28T03:27:22.399Z,11.15
2022-09-28T03:29:21.116Z,11.25
2022-09-28T03:31:24.774Z,11.24
2022-09-28T03:33:23.136Z,11.26
2022-09-28T03:35:21.491Z,11.30
2022-09-28T03:37:21.062Z,11.24
2022-09-28T03:39:19.241Z,11.21
2022-09-28T03:41:17.456Z,11.13
2022-09-28T03:43:15.641Z,11.04
2022-09-28T03:45:14.552Z,11.00
2022-09-28T03:47:14.056Z,11.11
2022-09-28T03:49:12.403Z,11.06
2022-09-28T03:51:12.161Z,11.07
2022-09-28T03:53:11.963Z,11.20
2022-09-28T03:55:10.889Z,11.18
2022-09-28T03:57:09.269Z,11.17
2022-09-28T03:59:07.704Z,11.25
2022-09-28T04:01:14.139Z,11.23
2022-09-28T04:03:16.011Z,11.24
2022-09-28T04:05:14.392Z,11.19
2022-09-28T04:07:12.471Z,11.15
2022-09-28T04:09:12.377Z,11.28
2022-09-28T04:11:10.607Z,11.22
2022-09-28T04:13:08.745Z,11.24
2022-09-28T04:15:08.249Z,11.32
2022-09-28T04:17:07.356Z,11.33
2022-09-28T04:19:05.874Z,11.42
2022-09-28T04:21:13.300Z,11.41
2022-09-28T04:23:15.567Z,11.37
2022-09-28T04:25:15.959Z,11.38
2022-09-28T04:27:31.710Z,11.38
2022-09-28T04:29:31.701Z,11.38
2022-09-28T04:31:32.190Z,11.40
2022-09-28T04:33:30.456Z,11.53
2022-09-28T04:35:29.304Z,11.47
2022-09-28T04:37:27.470Z,11.49
2022-09-28T04:39:25.718Z,11.68
2022-09-28T04:41:28.252Z,11.59
2022-09-28T04:43:27.109Z,11.52
2022-09-28T04:45:27.091Z,11.46
2022-09-28T04:47:31.328Z,11.39
2022-09-28T04:49:41.518Z,11.38
2022-09-28T04:51:42.342Z,11.44
2022-09-28T04:53:48.117Z,11.42
2022-09-28T04:55:46.685Z,11.45
2022-09-28T04:57:46.493Z,11.49
2022-09-28T04:59:44.703Z,11.51
2022-09-28T05:01:43.425Z,11.68
2022-09-28T05:03:44.502Z,11.77
2022-09-28T05:06:06.174Z,11.68
2022-09-28T05:08:24.756Z,11.67
2022-09-28T05:10:26.573Z,11.66
2022-09-28T05:12:27.403Z,11.53
2022-09-28T05:14:31.116Z,11.68
2022-09-28T05:16:39.965Z,11.76
2022-09-28T05:19:03.714Z,11.78
2022-09-28T05:21:02.264Z,11.77
2022-09-28T05:23:00.650Z,11.83
2022-09-28T05:25:02.947Z,11.81
2022-09-28T05:27:09.996Z,11.75
2022-09-28T05:29:10.708Z,11.85
2022-09-28T05:31:30.731Z,12.02
2022-09-28T05:34:05.316Z,12.07
2022-09-28T05:36:04.264Z,12.13
2022-09-28T05:38:18.420Z,12.13
2022-09-28T05:40:22.878Z,12.06
2022-09-28T05:42:40.688Z,12.17
2022-09-28T05:44:58.465Z,12.28
2022-09-28T05:47:17.377Z,12.43
2022-09-28T05:49:40.768Z,12.36
2022-09-28T05:51:57.703Z,12.63
2022-09-28T05:53:57.511Z,12.74
2022-09-28T05:56:12.785Z,13.00
2022-09-28T05:58:15.002Z,13.40
2022-09-28T06:00:14.403Z,13.77
2022-09-28T06:02:19.495Z,13.98
2022-09-28T06:04:20.931Z,14.06
2022-09-28T06:06:19.885Z,14.07
2022-09-28T06:08:21.301Z,14.10
2022-09-28T06:10:29.763Z,14.10
2022-09-28T06:12:30.809Z,14.03
2022-09-28T06:14:36.162Z,13.87
2022-09-28T06:16:34.985Z,13.82
2022-09-28T06:18:34.990Z,13.76
2022-09-28T06:20:55.065Z,13.65
2022-09-28T06:23:02.630Z,13.60
2022-09-28T06:25:00.863Z,13.45
2022-09-28T06:27:13.005Z,13.38
2022-09-28T06:29:14.725Z,13.37
2022-09-28T06:31:15.929Z,13.44
2022-09-28T06:33:21.912Z,13.33
2022-09-28T06:35:22.064Z,13.33
2022-09-28T06:37:20.583Z,13.21
2022-09-28T06:39:19.763Z,13.18
2022-09-28T06:41:18.452Z,13.04
2022-09-28T06:43:17.117Z,13.19
2022-09-28T06:45:39.518Z,13.76
2022-09-28T06:48:02.611Z,13.95
2022-09-28T06:50:15.135Z,13.73
2022-09-28T06:52:35.114Z,13.50
2022-09-28T06:54:37.294Z,13.32
2022-09-28T06:56:58.532Z,13.22
2022-09-28T06:58:56.906Z,13.13
2022-09-28T07:00:59.810Z,13.17
2022-09-28T07:02:59.838Z,13.51
2022-09-28T07:05:19.328Z,14.04
2022-09-28T07:07:29.756Z,14.51
2022-09-28T07:09:56.441Z,14.73
2022-09-28T07:12:20.722Z,14.61
2022-09-28T07:14:42.840Z,14.54
2022-09-28T07:17:09.622Z,14.93
2022-09-28T07:19:02.263Z,15.32
2022-09-28T07:21:02.847Z,15.85
2022-09-28T07:23:17.444Z,16.12
2022-09-28T07:25:41.182Z,16.18
2022-09-28T07:27:57.435Z,15.57
2022-09-28T07:30:21.821Z,15.03
2022-09-28T07:32:46.104Z,14.78
2022-09-28T07:35:05.288Z,14.97
2022-09-28T07:37:20.136Z,15.46
2022-09-28T07:39:19.839Z,15.90
2022-09-28T07:41:24.957Z,16.42
2022-09-28T07:43:26.608Z,16.93
2022-09-28T07:45:25.048Z,16.97
2022-09-28T07:47:34.636Z,16.90
2022-09-28T07:49:52.515Z,16.59
2022-09-28T07:52:13.895Z,16.62
2022-09-28T07:54:34.790Z,16.67
2022-09-28T07:57:00.420Z,16.47
2022-09-28T07:59:06.891Z,16.28
2022-09-28T08:01:14.945Z,16.19
2022-09-28T08:03:13.760Z,16.34
2022-09-28T08:05:32.232Z,16.65
2022-09-28T08:07:30.546Z,16.99
2022-09-28T08:09:34.672Z,16.78
2022-09-28T08:11:59.721Z,17.32
2022-09-28T08:14:37.648Z,18.22
2022-09-28T08:16:47.618Z,19.01
2022-09-28T08:18:56.650Z,19.45
2022-09-28T08:21:13.470Z,20.43
2022-09-28T08:23:11.990Z,20.52
2022-09-28T08:25:12.340Z,21.07
2022-09-28T08:27:11.993Z,21.15
2022-09-28T08:29:12.175Z,21.28
2022-09-28T08:31:28.540Z,22.00
2022-09-28T08:33:40.194Z,21.46
2022-09-28T08:36:01.127Z,21.21
2022-09-28T08:38:31.561Z,21.42
2022-09-28T08:41:00.237Z,21.39
2022-09-28T08:43:25.327Z,21.48
2022-09-28T08:45:52.381Z,21.90
2022-09-28T08:49:01.182Z,21.80
2022-09-28T08:51:24.563Z,22.41
2022-09-28T08:53:54.840Z,23.78
2022-09-28T08:55:58.429Z,25.22
2022-09-28T08:58:00.139Z,26.02
2022-09-28T09:00:10.936Z,27.23
2022-09-28T09:02:17.584Z,28.72
2022-09-28T09:04:16.070Z,29.38
2022-09-28T09:06:45.854Z,29.62
2022-09-28T09:09:12.990Z,30.01
2022-09-28T09:11:25.146Z,29.60
2022-09-28T09:13:56.693Z,29.04
2022-09-28T09:16:05.733Z,30.24
2022-09-28T09:18:34.417Z,30.02
2022-09-28T09:20:49.562Z,28.76
2022-09-28T09:23:18.631Z,28.84
2022-09-28T09:25:21.531Z,28.35
2022-09-28T09:27:46.726Z,28.37
2022-09-28T09:30:01.391Z,28.69
2022-09-28T09:32:23.281Z,28.58
2022-09-28T09:34:43.458Z,29.52
2022-09-28T09:37:24.792Z,29.89
2022-09-28T09:39:58.903Z,29.80
2022-09-28T09:42:34.018Z,29.89
2022-09-28T09:45:09.665Z,30.30
2022-09-28T09:47:33.339Z,30.41
2022-09-28T09:49:45.297Z,30.95
2022-09-28T09:51:50.247Z,31.35
2022-09-28T09:53:54.008Z,31.42
2022-09-28T09:55:57.460Z,31.44
2022-09-28T09:58:06.860Z,32.00
2022-09-28T10:00:14.400Z,32.28
2022-09-28T10:02:25.699Z,31.74
2022-09-28T10:04:41.103Z,30.13
2022-09-28T10:06:58.702Z,30.63
2022-09-28T10:09:05.932Z,31.06
2022-09-28T10:11:10.416Z,31.33
2022-09-28T10:13:11.601Z,32.33
2022-09-28T10:15:16.602Z,32.30
2022-09-28T10:17:28.014Z,32.57
2022-09-28T10:19:54.835Z,33.43
2022-09-28T10:22:17.368Z,33.23
2022-09-28T10:24:22.240Z,31.51
2022-09-28T10:26:26.043Z,31.05
2022-09-28T10:28:33.666Z,32.64
2022-09-28T10:30:36.132Z,33.23
2022-09-28T10:32:39.499Z,34.01
2022-09-28T10:34:38.291Z,33.96
2022-09-28T10:36:52.411Z,34.33
2022-09-28T10:38:50.593Z,33.35
2022-09-28T10:41:01.844Z,31.38
2022-09-28T10:43:21.762Z,29.02
2022-09-28T10:45:23.561Z,28.10
2022-09-28T10:47:25.446Z,27.20
2022-09-28T10:49:24.659Z,25.92
2022-09-28T10:51:42.140Z,25.45
2022-09-28T10:54:01.264Z,25.28
2022-09-28T10:56:21.707Z,24.84
2022-09-28T10:58:28.853Z,24.67
2022-09-28T11:00:41.362Z,24.51
2022-09-28T11:02:47.567Z,24.19
2022-09-28T11:04:55.571Z,24.37
2022-09-28T11:07:47.878Z,24.30
2022-09-28T11:09:56.480Z,24.55
2022-09-28T11:11:54.900Z,24.85
2022-09-28T11:13:57.243Z,24.52
2022-09-28T11:15:59.642Z,24.61
2022-09-28T11:18:26.551Z,24.71
2022-09-28T11:20:34.981Z,24.66
2022-09-28T11:22:42.419Z,24.87
2022-09-28T11:24:41.985Z,25.07
2022-09-28T11:26:47.119Z,25.53
2022-09-28T11:28:55.724Z,25.97
2022-09-28T11:31:08.173Z,25.75
2022-09-28T11:33:34.851Z,25.34
2022-09-28T11:36:00.705Z,25.51
2022-09-28T11:38:19.550Z,25.47
2022-09-28T11:41:02.691Z,25.32
2022-09-28T11:43:15.943Z,25.21
2022-09-28T11:45:26.151Z,25.03
2022-09-28T11:47:47.328Z,24.94
2022-09-28T11:49:52.321Z,24.63
2022-09-28T11:51:54.115Z,24.66
2022-09-28T11:53:56.266Z,24.54
2022-09-28T11:56:03.208Z,24.48
2022-09-28T11:58:14.366Z,24.45
2022-09-28T12:00:16.894Z,24.47
2022-09-28T12:02:22.102Z,24.71
2022-09-28T12:04:33.280Z,24.91
2022-09-28T12:06:38.813Z,24.63
2022-09-28T12:08:44.541Z,24.67
2022-09-28T12:11:07.100Z,24.62
2022-09-28T12:13:28.679Z,24.33
2022-09-28T12:15:42.163Z,24.37
2022-09-28T12:17:51.930Z,24.14
2022-09-28T12:19:55.492Z,24.14
2022-09-28T12:21:57.037Z,24.13
2022-09-28T12:23:58.012Z,23.87
2022-09-28T12:26:07.872Z,23.77
2022-09-28T12:28:09.290Z,23.81
2022-09-28T12:30:20.528Z,24.06
2022-09-28T12:32:28.791Z,24.10
2022-09-28T12:34:27.557Z,24.28
2022-09-28T12:36:41.760Z,24.35
2022-09-28T12:39:30.677Z,24.44
2022-09-28T12:41:50.881Z,24.42
2022-09-28T12:44:17.250Z,24.13
2022-09-28T12:46:58.755Z,23.69
2022-09-28T12:52:00.334Z,23.65
2022-09-28T12:54:11.968Z,23.47
2022-09-28T12:56:21.561Z,23.29
2022-09-28T12:58:36.697Z,23.31
2022-09-28T13:00:42.199Z,23.15
2022-09-28T13:03:04.077Z,23.15
2022-09-28T13:05:20.026Z,23.37
2022-09-28T13:07:27.746Z,23.15
2022-09-28T13:09:29.621Z,23.07
2022-09-28T13:11:34.544Z,23.06
2022-09-28T13:13:43.814Z,22.92
2022-09-28T13:15:50.397Z,22.98
2022-09-28T13:17:59.358Z,22.91
2022-09-28T13:20:00.794Z,23.13
2022-09-28T13:22:07.414Z,23.16
2022-09-28T13:24:27.803Z,23.21
2022-09-28T13:26:29.788Z,23.57
2022-09-28T13:28:30.170Z,23.61
2022-09-28T13:30:28.654Z,23.67
2022-09-28T13:32:30.179Z,23.69
2022-09-28T13:34:33.763Z,23.48
2022-09-28T13:36:39.511Z,23.63
2022-09-28T13:38:51.005Z,23.42
2022-09-28T13:41:12.956Z,23.48
2022-09-28T13:43:26.411Z,23.32
2022-09-28T13:45:44.004Z,23.26
2022-09-28T13:48:16.673Z,23.32
2022-09-28T13:50:28.778Z,23.32
2022-09-28T13:52:45.550Z,23.07
2022-09-28T13:55:04.507Z,22.92
2022-09-28T13:57:19.737Z,22.92
2022-09-28T13:59:24.475Z,22.79
2022-09-28T14:01:27.818Z,22.77
2022-09-28T14:03:29.119Z,22.83
2022-09-28T14:05:47.685Z,22.90
2022-09-28T14:08:20.970Z,22.99
2022-09-28T14:10:21.596Z,22.97
2022-09-28T14:12:47.446Z,23.05
2022-09-28T14:14:49.348Z,22.83
2022-09-28T14:16:47.988Z,22.86
2022-09-28T14:18:51.287Z,22.71
2022-09-28T14:21:06.199Z,22.55
2022-09-28T14:23:42.118Z,22.36
2022-09-28T14:25:44.585Z,22.29
2022-09-28T14:28:05.596Z,22.16
2022-09-28T14:30:17.218Z,22.07
2022-09-28T14:32:25.895Z,21.88
2022-09-28T14:34:37.085Z,21.84
2022-09-28T14:37:06.236Z,21.78
2022-09-28T14:39:22.153Z,21.68
2022-09-28T14:41:31.382Z,21.63
2022-09-28T14:43:37.769Z,21.59
2022-09-28T14:45:38.442Z,21.56
2022-09-28T14:47:38.272Z,21.51
2022-09-28T14:49:54.969Z,21.53
2022-09-28T14:52:05.298Z,21.56
2022-09-28T14:54:06.732Z,21.51
2022-09-28T14:56:10.034Z,21.56
2022-09-28T14:58:19.591Z,21.58
2022-09-28T15:00:24.580Z,21.60
2022-09-28T15:02:29.055Z,21.61
2022-09-28T15:04:30.355Z,21.67
2022-09-28T15:06:52.075Z,21.77
2022-09-28T15:09:20.739Z,21.71
2022-09-28T15:11:23.527Z,21.72
2022-09-28T15:13:25.957Z,21.68
2022-09-28T15:15:34.665Z,21.61
2022-09-28T15:17:39.547Z,21.53
2022-09-28T15:19:50.222Z,21.47
2022-09-28T15:21:50.293Z,21.52
2022-09-28T15:23:49.703Z,21.50
2022-09-28T15:25:53.069Z,21.49
2022-09-28T15:27:54.161Z,21.49
2022-09-28T15:29:59.711Z,21.41
2022-09-28T15:31:58.170Z,21.32
2022-09-28T15:34:13.884Z,21.24
2022-09-28T15:36:19.843Z,21.09
2022-09-28T15:38:18.645Z,21.05
2022-09-28T15:40:18.997Z,20.97
2022-09-28T15:42:19.752Z,20.89
2022-09-28T15:44:30.211Z,20.79
2022-09-28T15:46:30.668Z,20.70
2022-09-28T15:48:34.489Z,20.63
2022-09-28T15:50:36.858Z,20.56
2022-09-28T15:52:38.410Z,20.45
2022-09-28T15:54:43.353Z,20.40
2022-09-28T15:56:55.804Z,20.28
2022-09-28T15:59:17.006Z,20.14
2022-09-28T16:01:36.136Z,20.04
2022-09-28T16:03:34.976Z,20.00
2022-09-28T16:05:46.221Z,19.99
2022-09-28T16:07:56.285Z,20.01
2022-09-28T16:09:56.607Z,20.03
2022-09-28T16:11:54.986Z,20.00
2022-09-28T16:14:01.637Z,19.97
2022-09-28T16:16:01.949Z,19.88
2022-09-28T16:18:03.506Z,19.80
2022-09-28T16:20:36.039Z,19.60
2022-09-28T16:27:29.700Z,19.07
2022-09-28T16:29:35.824Z,18.99
2022-09-28T16:31:37.764Z,18.88
2022-09-28T16:33:44.620Z,18.74
2022-09-28T16:35:52.043Z,18.67
2022-09-28T16:37:58.664Z,18.60
2022-09-28T16:39:57.157Z,18.64
2022-09-28T16:42:03.653Z,18.69
2022-09-28T16:44:03.754Z,18.65
2022-09-28T16:46:10.332Z,18.60
2022-09-28T16:48:11.217Z,18.52
2022-09-28T16:50:15.290Z,18.52
2022-09-28T16:52:13.699Z,18.44
2022-09-28T16:54:34.814Z,18.37
2022-09-28T16:56:34.302Z,18.17
2022-09-28T16:58:40.137Z,18.14
2022-09-28T17:00:44.014Z,18.09
2022-09-28T17:02:46.844Z,18.09
2022-09-28T17:04:57.460Z,18.03
2022-09-28T17:07:01.171Z,18.05
2022-09-28T17:09:00.301Z,18.06
2022-09-28T17:11:22.727Z,18.10
2022-09-28T17:13:21.131Z,18.11
2022-09-28T17:15:19.863Z,18.17
2022-09-28T17:17:18.326Z,18.21
2022-09-28T17:19:20.375Z,18.17
2022-09-28T17:21:22.163Z,18.17
2022-09-28T17:23:21.148Z,18.19
2022-09-28T17:25:22.271Z,18.15
2022-09-28T17:27:22.995Z,18.13
2022-09-28T17:29:21.618Z,18.14
2022-09-28T17:31:20.870Z,18.08
2022-09-28T17:33:21.476Z,18.10
2022-09-28T17:35:25.350Z,18.18
2022-09-28T17:37:25.429Z,18.05
2022-09-28T17:39:25.236Z,17.96
2022-09-28T17:41:23.451Z,17.97
2022-09-28T17:43:22.542Z,17.98
2022-09-28T17:45:20.737Z,17.94
2022-09-28T17:47:19.237Z,17.90
2022-09-28T17:49:18.825Z,17.78
2022-09-28T17:51:22.540Z,17.68
2022-09-28T17:53:23.172Z,17.60
2022-09-28T17:55:23.181Z,17.58
2022-09-28T17:57:21.487Z,17.50
2022-09-28T17:59:19.979Z,17.61
2022-09-28T18:01:18.160Z,17.55
2022-09-28T18:03:23.207Z,17.60
2022-09-28T18:05:25.365Z,17.51
2022-09-28T18:07:23.506Z,17.48
2022-09-28T18:09:25.487Z,17.36
2022-09-28T18:11:24.264Z,17.33
2022-09-28T18:13:22.439Z,17.48
2022-09-28T18:15:20.845Z,17.54
2022-09-28T18:17:19.131Z,17.48
2022-09-28T18:19:20.323Z,17.35
2022-09-28T18:21:20.962Z,17.32
2022-09-28T18:23:19.397Z,17.29
2022-09-28T18:25:19.297Z,17.21
2022-09-28T18:27:17.798Z,17.24
2022-09-28T18:29:20.681Z,17.22
2022-09-28T18:31:19.313Z,17.07
2022-09-28T18:33:22.934Z,17.03
2022-09-28T18:35:23.621Z,17.06
2022-09-28T18:37:24.031Z,17.12
2022-09-28T18:39:26.659Z,17.07
2022-09-28T18:41:28.828Z,17.06
2022-09-28T18:43:27.129Z,17.03
2022-09-28T18:45:25.682Z,16.95
2022-09-28T18:47:24.223Z,16.95
2022-09-28T18:49:22.700Z,16.90
2022-09-28T18:51:23.126Z,16.78
2022-09-28T18:53:21.990Z,16.68
2022-09-28T18:55:20.483Z,16.67
2022-09-28T18:57:20.533Z,16.69
2022-09-28T18:59:18.757Z,16.58
2022-09-28T19:01:29.976Z,16.56
2022-09-28T19:03:29.322Z,16.64
2022-09-28T19:05:28.577Z,16.61
2022-09-28T19:07:29.104Z,16.54
2022-09-28T19:09:28.157Z,16.64
2022-09-28T19:11:26.899Z,16.69
2022-09-28T19:13:26.446Z,16.82
2022-09-28T19:15:25.616Z,16.96
2022-09-28T19:17:24.107Z,16.97
2022-09-28T19:19:22.512Z,17.02
2022-09-28T19:21:21.361Z,17.05
2022-09-28T19:23:19.567Z,17.09
2022-09-28T19:25:17.992Z,17.22
2022-09-28T19:27:19.082Z,17.25
2022-09-28T19:29:19.109Z,17.16
2022-09-28T19:31:20.739Z,17.18
2022-09-28T19:33:19.365Z,17.13
2022-09-28T19:35:17.897Z,17.10
2022-09-28T19:37:16.324Z,17.19
2022-09-28T19:39:15.980Z,17.14
2022-09-28T19:41:39.565Z,17.12
2022-09-28T19:43:43.836Z,16.98
2022-09-28T19:45:44.028Z,16.86
2022-09-28T19:47:42.486Z,16.93
2022-09-28T19:49:41.759Z,16.93
2022-09-28T19:51:51.459Z,16.96
2022-09-28T19:53:58.906Z,16.88
2022-09-28T19:55:58.721Z,16.90
2022-09-28T19:57:57.114Z,16.81
2022-09-28T20:00:00.896Z,16.75
2022-09-28T20:02:04.690Z,16.64
2022-09-28T20:04:03.467Z,16.66
2022-09-28T20:06:02.459Z,16.51
2022-09-28T20:08:00.851Z,16.50
2022-09-28T20:09:59.222Z,16.44
2022-09-28T20:11:57.649Z,16.48
2022-09-28T20:13:55.960Z,16.48
2022-09-28T20:15:54.441Z,16.55
2022-09-28T20:17:58.874Z,16.59
2022-09-28T20:19:57.779Z,16.53
2022-09-28T20:21:59.440Z,16.62
2022-09-28T20:23:57.939Z,16.65
2022-09-28T20:25:56.441Z,16.71
2022-09-28T20:27:55.371Z,16.73
2022-09-28T20:29:53.818Z,16.85
2022-09-28T20:31:52.266Z,16.79
2022-09-28T20:33:53.911Z,16.72
2022-09-28T20:35:52.467Z,16.67
2022-09-28T20:37:51.194Z,16.61
2022-09-28T20:39:49.470Z,16.51
2022-09-28T20:41:49.067Z,16.54
2022-09-28T20:43:48.291Z,16.48
2022-09-28T20:45:46.687Z,16.32
2022-09-28T20:47:45.058Z,16.33
2022-09-28T20:49:44.580Z,16.23
2022-09-28T20:51:42.919Z,16.28
2022-09-28T20:53:44.209Z,16.26
2022-09-28T20:55:42.547Z,16.19
2022-09-28T20:57:40.855Z,16.18
2022-09-28T20:59:39.166Z,16.04
2022-09-28T21:01:37.776Z,15.94
2022-09-28T21:03:36.490Z,16.01
2022-09-28T21:05:38.329Z,16.02
2022-09-28T21:07:36.666Z,15.88
2022-09-28T21:09:34.900Z,15.82
2022-09-28T21:11:35.535Z,15.92
2022-09-28T21:13:34.425Z,15.85
2022-09-28T21:15:32.778Z,15.81
2022-09-28T21:17:31.076Z,15.74
2022-09-28T21:19:30.060Z,15.67
2022-09-28T21:21:29.811Z,15.63
2022-09-28T21:23:28.141Z,15.61
2022-09-28T21:25:26.358Z,15.61
2022-09-28T21:27:24.707Z,15.63
2022-09-28T21:29:22.939Z,15.72
2022-09-28T21:31:27.575Z,15.67
2022-09-28T21:33:27.102Z,15.63
2022-09-28T21:35:26.220Z,15.60
2022-09-28T21:37:26.077Z,15.74
2022-09-28T21:39:24.228Z,15.65
2022-09-28T21:41:22.409Z,15.58
2022-09-28T21:43:20.741Z,15.47
2022-09-28T21:45:18.975Z,15.50
2022-09-28T21:47:17.210Z,15.46
2022-09-28T21:49:15.387Z,15.45
2022-09-28T21:51:15.769Z,15.38
2022-09-28T21:53:15.542Z,15.39
2022-09-28T21:55:13.695Z,15.57
2022-09-28T21:57:12.065Z,15.58
2022-09-28T21:59:10.293Z,15.45
2022-09-28T22:01:12.281Z,15.42
2022-09-28T22:03:10.625Z,15.32
2022-09-28T22:05:09.648Z,15.21
2022-09-28T22:07:08.092Z,15.11
2022-09-28T22:09:08.081Z,15.17
2022-09-28T22:11:08.823Z,15.11
2022-09-28T22:13:07.246Z,15.09
2022-09-28T22:15:06.856Z,15.10
2022-09-28T22:17:05.322Z,15.09
2022-09-28T22:19:03.460Z,15.11
2022-09-28T22:21:02.178Z,15.19
2022-09-28T22:23:00.373Z,15.34
2022-09-28T22:25:00.827Z,15.35
2022-09-28T22:26:58.997Z,15.32
2022-09-28T22:28:58.915Z,15.25
2022-09-28T22:30:57.767Z,15.30
2022-09-28T22:32:56.331Z,15.27
2022-09-28T22:34:55.066Z,15.23
2022-09-28T22:36:53.363Z,15.34
2022-09-28T22:38:51.742Z,15.39
2022-09-28T22:40:52.977Z,15.37
2022-09-28T22:42:51.382Z,15.48
2022-09-28T22:44:49.853Z,15.68
2022-09-28T22:46:48.088Z,15.69
2022-09-28T22:48:48.432Z,15.59
2022-09-28T22:50:50.865Z,15.62
2022-09-28T22:52:48.962Z,15.47
2022-09-28T22:54:48.091Z,15.46
2022-09-28T22:56:47.711Z,15.44
2022-09-28T22:58:46.036Z,15.33
2022-09-28T23:00:44.703Z,15.27
2022-09-28T23:02:43.011Z,15.26
2022-09-28T23:04:41.106Z,15.31
2022-09-28T23:06:39.320Z,15.35
2022-09-28T23:08:37.656Z,15.30
2022-09-28T23:10:35.891Z,15.20
2022-09-28T23:12:36.009Z,15.24
2022-09-28T23:14:34.256Z,15.31
2022-09-28T23:16:32.551Z,15.21
2022-09-28T23:18:33.255Z,15.16
2022-09-28T23:20:31.432Z,15.10
2022-09-28T23:22:29.793Z,15.03
2022-09-28T23:24:28.136Z,15.02
2022-09-28T23:26:29.046Z,14.96
2022-09-28T23:28:28.717Z,14.96
2022-09-28T23:30:26.947Z,14.96
2022-09-28T23:32:29.773Z,15.02
2022-09-28T23:34:30.033Z,15.00
2022-09-28T23:36:28.283Z,14.99
2022-09-28T23:38:26.721Z,14.97
2022-09-28T23:40:25.246Z,15.02
2022-09-28T23:42:23.504Z,15.09
2022-09-28T23:44:23.103Z,15.09
2022-09-28T23:46:21.517Z,15.07
2022-09-28T23:48:19.744Z,15.05
2022-09-28T23:50:18.226Z,15.04
2022-09-28T23:52:16.541Z,15.02
2022-09-28T23:54:14.928Z,14.97
2022-09-28T23:56:13.088Z,14.94
2022-09-28T23:58:11.642Z,14.96
